createdAt,value
2018-05-10T00:00:50.641Z,61.74
2018-05-10T00:01:50.653Z,62.32
2018-05-10T00:03:43.783Z,61.84
2018-05-10T00:04:43.776Z,62.10
2018-05-10T00:06:36.690Z,62.41
2018-05-10T00:07:36.712Z,62.23
2018-05-10T00:09:29.644Z,62.23
2018-05-10T00:10:29.650Z,62.19
2018-05-10T00:12:22.564Z,62.32
2018-05-10T00:13:22.587Z,62.51
2018-05-10T00:15:15.520Z,63.06
2018-05-10T00:16:15.530Z,62.96
2018-05-10T00:18:08.441Z,62.87
2018-05-10T00:19:08.470Z,62.68
2018-05-10T00:21:01.397Z,63.25
2018-05-10T00:22:01.404Z,63.25
2018-05-10T00:23:54.331Z,63.45
2018-05-10T00:24:54.338Z,63.64
2018-05-10T00:26:47.248Z,63.73
2018-05-10T00:27:47.272Z,63.35
2018-05-10T00:29:40.205Z,63.83
2018-05-10T00:30:40.216Z,64.22
2018-05-10T00:32:33.124Z,63.73
2018-05-10T00:33:33.146Z,64.66
2018-05-10T00:35:26.076Z,64.28
2018-05-10T00:36:26.083Z,64.85
2018-05-10T00:38:18.996Z,64.95
2018-05-10T00:39:19.020Z,64.47
2018-05-10T00:41:11.952Z,64.31
2018-05-10T00:42:11.955Z,64.12
2018-05-10T00:44:04.884Z,64.79
2018-05-10T00:45:04.895Z,64.89
2018-05-10T00:46:57.807Z,65.23
2018-05-10T00:47:57.832Z,65.05
2018-05-10T00:49:50.760Z,64.66
2018-05-10T00:50:50.766Z,65.23
2018-05-10T00:52:43.680Z,65.62
2018-05-10T00:53:43.703Z,65.53
2018-05-10T00:55:36.631Z,65.62
2018-05-10T00:56:36.649Z,65.91
2018-05-10T00:58:29.552Z,66.00
2018-05-10T00:59:29.572Z,65.78
2018-05-10T01:01:22.505Z,65.72
2018-05-10T01:02:22.512Z,65.81
2018-05-10T01:04:15.441Z,65.91
2018-05-10T01:05:15.445Z,65.62
2018-05-10T01:07:08.363Z,66.00
2018-05-10T01:08:08.388Z,66.49
2018-05-10T01:10:01.323Z,66.64
2018-05-10T01:11:01.332Z,66.77
2018-05-10T01:12:54.237Z,66.46
2018-05-10T01:13:54.261Z,66.46
2018-05-10T01:15:47.193Z,66.74
2018-05-10T01:16:47.193Z,66.84
2018-05-10T01:18:40.107Z,66.84
2018-05-10T01:19:40.130Z,66.84
2018-05-10T01:21:33.066Z,66.84
2018-05-10T01:22:33.068Z,67.61
2018-05-10T01:24:26.041Z,67.03
2018-05-10T01:25:26.004Z,67.13
2018-05-10T01:27:18.913Z,67.41
2018-05-10T01:28:18.937Z,67.38
2018-05-10T01:30:11.888Z,67.76
2018-05-10T01:31:11.870Z,67.86
2018-05-10T01:33:04.778Z,68.05
2018-05-10T01:34:04.803Z,67.67
2018-05-10T01:35:57.732Z,67.86
2018-05-10T01:36:57.737Z,67.47
2018-05-10T01:38:50.648Z,68.44
2018-05-10T01:39:50.671Z,68.53
2018-05-10T01:41:43.599Z,68.44
2018-05-10T01:42:43.603Z,68.53
2018-05-10T01:44:36.534Z,68.44
2018-05-10T01:45:36.541Z,68.63
2018-05-10T01:47:29.448Z,69.68
2018-05-10T01:48:29.472Z,69.11
2018-05-10T01:50:22.402Z,69.59
2018-05-10T01:51:22.406Z,69.49
2018-05-10T01:53:15.317Z,69.40
2018-05-10T01:54:15.340Z,69.40
2018-05-10T01:56:08.270Z,69.84
2018-05-10T01:57:08.280Z,70.17
2018-05-10T01:59:01.186Z,70.13
2018-05-10T02:00:01.209Z,69.93
2018-05-10T02:01:54.140Z,70.32
2018-05-10T02:02:54.145Z,70.23
2018-05-10T02:04:47.078Z,70.61
2018-05-10T02:05:47.079Z,70.42
2018-05-10T02:07:39.990Z,70.99
2018-05-10T02:08:40.013Z,71.09
2018-05-10T02:10:32.941Z,71.47
2018-05-10T02:11:32.945Z,71.66
2018-05-10T02:13:25.855Z,71.47
2018-05-10T02:14:25.878Z,71.47
2018-05-10T02:16:18.809Z,71.86
2018-05-10T02:17:18.811Z,71.28
2018-05-10T02:19:11.719Z,71.09
2018-05-10T02:20:11.742Z,71.37
2018-05-10T02:22:04.670Z,71.19
2018-05-10T02:23:04.674Z,71.47
2018-05-10T02:24:57.609Z,71.57
2018-05-10T02:25:57.617Z,71.86
2018-05-10T02:27:50.527Z,71.47
2018-05-10T02:28:50.549Z,71.95
2018-05-10T02:30:43.483Z,71.86
2018-05-10T02:31:43.491Z,71.95
2018-05-10T02:33:36.397Z,71.37
2018-05-10T02:34:36.521Z,71.28
2018-05-10T02:36:29.427Z,71.57
2018-05-10T02:37:29.355Z,71.28
2018-05-10T02:39:22.264Z,72.05
2018-05-10T02:40:22.291Z,71.76
2018-05-10T02:42:15.216Z,71.47
2018-05-10T02:43:15.221Z,71.37
2018-05-10T02:45:08.275Z,72.05
2018-05-10T02:46:08.156Z,72.24
2018-05-10T02:48:01.077Z,72.14
2018-05-10T02:49:01.088Z,71.37
2018-05-10T02:50:54.021Z,72.43
2018-05-10T02:51:54.023Z,72.72
2018-05-10T02:53:46.932Z,72.14
2018-05-10T02:54:46.958Z,72.24
2018-05-10T02:56:39.883Z,72.14
2018-05-10T02:57:39.890Z,72.14
2018-05-10T02:59:32.797Z,72.72
2018-05-10T03:00:32.822Z,72.72
2018-05-10T03:02:25.752Z,72.30
2018-05-10T03:03:25.756Z,72.49
2018-05-10T03:05:18.686Z,72.97
2018-05-10T03:06:18.688Z,72.97
2018-05-10T03:08:11.603Z,73.45
2018-05-10T03:09:11.630Z,73.83
2018-05-10T03:11:04.551Z,73.07
2018-05-10T03:12:04.560Z,73.16
2018-05-10T03:13:57.465Z,72.78
2018-05-10T03:14:57.489Z,72.68
2018-05-10T03:16:50.413Z,72.78
2018-05-10T03:17:50.419Z,72.88
2018-05-10T03:19:43.327Z,72.78
2018-05-10T03:20:43.351Z,72.97
2018-05-10T03:22:36.283Z,72.97
2018-05-10T03:23:36.284Z,73.26
2018-05-10T03:25:29.210Z,74.27
2018-05-10T03:26:29.215Z,74.08
2018-05-10T03:28:22.125Z,74.18
2018-05-10T03:29:22.147Z,74.57
2018-05-10T03:31:15.072Z,75.14
2018-05-10T03:32:15.076Z,75.04
2018-05-10T03:34:07.986Z,75.71
2018-05-10T03:35:08.007Z,75.90
2018-05-10T03:37:00.936Z,75.71
2018-05-10T03:38:00.943Z,76.48
2018-05-10T03:39:53.850Z,76.00
2018-05-10T03:40:53.871Z,75.90
2018-05-10T03:42:46.798Z,76.48
2018-05-10T03:43:46.801Z,76.39
2018-05-10T03:45:39.738Z,76.57
2018-05-10T03:46:39.735Z,76.57
2018-05-10T03:48:32.648Z,76.67
2018-05-10T03:49:32.670Z,76.29
2018-05-10T03:51:25.595Z,76.39
2018-05-10T03:52:25.601Z,76.57
2018-05-10T03:54:18.508Z,76.57
2018-05-10T03:55:18.531Z,76.96
2018-05-10T03:57:11.460Z,76.81
2018-05-10T03:58:11.460Z,76.81
2018-05-10T04:00:04.369Z,76.14
2018-05-10T04:01:04.446Z,76.04
2018-05-10T04:02:57.332Z,76.23
2018-05-10T04:03:57.325Z,76.23
2018-05-10T04:05:50.267Z,76.71
2018-05-10T04:06:50.267Z,76.71
2018-05-10T04:08:43.185Z,76.27
2018-05-10T04:09:43.208Z,76.07
2018-05-10T04:11:36.136Z,75.70
2018-05-10T04:12:36.138Z,75.50
2018-05-10T04:14:29.049Z,75.06
2018-05-10T04:15:29.128Z,75.21
2018-05-10T04:17:22.000Z,74.48
2018-05-10T04:18:22.006Z,74.29
2018-05-10T04:20:14.920Z,74.29
2018-05-10T04:21:14.937Z,73.85
2018-05-10T04:23:07.867Z,73.08
2018-05-10T04:24:07.951Z,72.50
2018-05-10T04:26:00.799Z,72.54
2018-05-10T04:27:00.805Z,71.48
2018-05-10T04:28:53.716Z,71.58
2018-05-10T04:29:53.789Z,71.10
2018-05-10T04:31:46.668Z,70.75
2018-05-10T04:32:46.674Z,70.65
2018-05-10T04:34:39.586Z,70.37
2018-05-10T04:35:39.618Z,70.27
2018-05-10T04:37:32.540Z,70.07
2018-05-10T04:38:32.615Z,70.27
2018-05-10T04:40:25.464Z,69.89
2018-05-10T04:41:25.568Z,69.98
2018-05-10T04:43:18.412Z,69.15
2018-05-10T04:44:18.419Z,69.73
2018-05-10T04:46:11.352Z,69.06
2018-05-10T04:47:11.361Z,68.67
2018-05-10T04:49:04.267Z,68.76
2018-05-10T04:50:04.292Z,68.96
2018-05-10T04:51:57.226Z,68.38
2018-05-10T04:52:57.231Z,68.76
2018-05-10T04:54:50.197Z,68.76
2018-05-10T04:55:50.169Z,68.48
2018-05-10T04:57:43.118Z,68.57
2018-05-10T04:58:43.109Z,68.38
2018-05-10T05:00:36.017Z,68.51
2018-05-10T05:01:36.143Z,67.99
2018-05-10T05:03:28.981Z,68.67
2018-05-10T05:04:28.980Z,67.99
2018-05-10T05:06:21.915Z,68.19
2018-05-10T05:07:21.926Z,68.57
2018-05-10T05:09:14.835Z,68.86
2018-05-10T05:10:14.868Z,68.54
2018-05-10T05:12:07.794Z,70.07
2018-05-10T05:13:07.799Z,70.07
2018-05-10T05:15:00.715Z,70.43
2018-05-10T05:16:00.746Z,70.81
2018-05-10T05:17:53.674Z,71.29
2018-05-10T05:18:53.678Z,71.52
2018-05-10T05:20:46.590Z,71.14
2018-05-10T05:21:46.616Z,70.37
2018-05-10T05:23:39.547Z,71.00
2018-05-10T05:24:39.555Z,71.39
2018-05-10T05:26:32.512Z,71.10
2018-05-10T05:27:32.492Z,71.55
2018-05-10T05:29:25.430Z,72.50
2018-05-10T05:30:25.438Z,72.50
2018-05-10T05:32:18.364Z,73.50
2018-05-10T05:33:18.371Z,73.27
2018-05-10T05:35:11.286Z,73.37
2018-05-10T05:36:11.317Z,73.85
2018-05-10T05:38:04.240Z,73.94
2018-05-10T05:39:04.249Z,74.43
2018-05-10T05:40:57.232Z,74.23
2018-05-10T05:41:57.186Z,73.98
2018-05-10T05:43:50.117Z,73.11
2018-05-10T05:44:50.123Z,72.16
2018-05-10T05:46:43.055Z,72.54
2018-05-10T05:47:43.061Z,72.34
2018-05-10T05:49:35.978Z,72.54
2018-05-10T05:50:36.007Z,72.58
2018-05-10T05:52:28.937Z,71.52
2018-05-10T05:53:28.942Z,71.23
2018-05-10T05:55:21.857Z,71.04
2018-05-10T05:56:21.887Z,71.52
2018-05-10T05:58:14.812Z,72.00
2018-05-10T05:59:14.820Z,72.54
2018-05-10T06:01:07.733Z,72.99
2018-05-10T06:02:07.758Z,72.60
2018-05-10T06:04:00.691Z,74.19
2018-05-10T06:05:00.700Z,75.45
2018-05-10T06:06:53.639Z,75.92
2018-05-10T06:07:53.641Z,75.54
2018-05-10T06:09:46.551Z,75.92
2018-05-10T06:10:46.580Z,76.21
2018-05-10T06:12:39.505Z,75.63
2018-05-10T06:13:39.511Z,75.15
2018-05-10T06:15:32.501Z,75.45
2018-05-10T06:16:32.455Z,75.73
2018-05-10T06:18:25.376Z,75.54
2018-05-10T06:19:25.422Z,75.35
2018-05-10T06:21:18.297Z,75.35
2018-05-10T06:22:18.321Z,75.54
2018-05-10T06:24:11.250Z,76.02
2018-05-10T06:25:11.487Z,76.12
2018-05-10T06:27:04.209Z,75.63
2018-05-10T06:28:04.194Z,75.92
2018-05-10T06:29:57.107Z,75.63
2018-05-10T06:30:57.132Z,75.45
2018-05-10T06:32:50.062Z,75.54
2018-05-10T06:33:50.081Z,75.82
2018-05-10T06:35:42.981Z,76.21
2018-05-10T06:36:43.004Z,76.40
2018-05-10T06:38:35.932Z,75.92
2018-05-10T06:39:35.939Z,75.54
2018-05-10T06:41:28.943Z,75.57
2018-05-10T06:42:28.879Z,74.81
2018-05-10T06:44:21.804Z,73.37
2018-05-10T06:45:21.816Z,73.94
2018-05-10T06:47:14.745Z,73.98
2018-05-10T06:48:14.755Z,73.98
2018-05-10T06:50:07.678Z,73.56
2018-05-10T06:51:07.684Z,73.46
2018-05-10T06:53:00.770Z,72.44
2018-05-10T06:54:00.777Z,72.44
2018-05-10T06:55:53.693Z,72.73
2018-05-10T06:56:53.717Z,72.44
2018-05-10T06:58:46.658Z,72.34
2018-05-10T06:59:46.740Z,72.54
2018-05-10T07:01:39.575Z,72.19
2018-05-10T07:02:39.600Z,72.13
2018-05-10T07:04:32.540Z,70.43
2018-05-10T07:05:32.544Z,68.80
2018-05-10T07:07:25.490Z,68.90
2018-05-10T07:08:25.487Z,68.70
2018-05-10T07:10:18.398Z,68.22
2018-05-10T07:11:18.429Z,68.06
2018-05-10T07:13:11.366Z,67.61
2018-05-10T07:14:11.373Z,66.85
2018-05-10T07:16:04.289Z,65.59
2018-05-10T07:17:04.320Z,66.65
2018-05-10T07:18:57.253Z,65.40
2018-05-10T07:19:57.265Z,66.07
2018-05-10T07:21:50.177Z,66.85
2018-05-10T07:22:50.208Z,65.56
2018-05-10T07:24:43.146Z,65.17
2018-05-10T07:25:43.152Z,65.37
2018-05-10T07:27:36.071Z,66.52
2018-05-10T07:28:36.098Z,65.37
2018-05-10T07:30:29.034Z,64.92
2018-05-10T07:31:29.046Z,65.20
2018-05-10T07:33:21.981Z,64.34
2018-05-10T07:34:21.989Z,65.17
2018-05-10T07:36:14.906Z,65.66
2018-05-10T07:37:14.934Z,65.85
2018-05-10T07:39:07.871Z,66.14
2018-05-10T07:40:07.880Z,65.72
2018-05-10T07:42:00.830Z,66.20
2018-05-10T07:43:00.827Z,65.75
2018-05-10T07:44:53.768Z,66.14
2018-05-10T07:45:53.772Z,66.14
2018-05-10T07:47:46.686Z,65.66
2018-05-10T07:48:46.716Z,65.37
2018-05-10T07:50:39.653Z,64.82
2018-05-10T07:51:39.660Z,64.43
2018-05-10T07:53:32.596Z,65.30
2018-05-10T07:54:32.608Z,64.63
2018-05-10T07:56:25.522Z,63.60
2018-05-10T07:57:25.553Z,64.08
2018-05-10T07:59:18.497Z,62.45
2018-05-10T08:00:18.497Z,62.25
2018-05-10T08:02:11.450Z,62.09
2018-05-10T08:03:11.444Z,62.06
2018-05-10T08:05:04.378Z,63.31
2018-05-10T08:06:04.388Z,62.73
2018-05-10T08:07:57.306Z,62.93
2018-05-10T08:08:57.335Z,62.93
2018-05-10T08:10:50.271Z,62.45
2018-05-10T08:11:50.280Z,63.41
2018-05-10T08:13:43.226Z,64.08
2018-05-10T08:14:43.235Z,63.34
2018-05-10T08:16:36.158Z,62.86
2018-05-10T08:17:36.185Z,63.12
2018-05-10T08:19:29.120Z,63.41
2018-05-10T08:20:29.129Z,63.31
2018-05-10T08:22:22.045Z,63.76
2018-05-10T08:23:22.076Z,63.47
2018-05-10T08:25:15.010Z,63.18
2018-05-10T08:26:15.021Z,63.67
2018-05-10T08:28:08.113Z,64.43
2018-05-10T08:29:08.141Z,64.53
2018-05-10T08:31:01.077Z,63.85
2018-05-10T08:32:01.089Z,63.47
2018-05-10T08:33:54.026Z,64.15
2018-05-10T08:34:54.033Z,63.57
2018-05-10T08:36:47.065Z,63.99
2018-05-10T08:37:46.983Z,64.28
2018-05-10T08:39:39.910Z,66.20
2018-05-10T08:40:39.918Z,66.30
2018-05-10T08:42:32.833Z,66.27
2018-05-10T08:43:32.863Z,66.55
2018-05-10T08:45:26.289Z,66.58
2018-05-10T08:46:26.296Z,65.63
2018-05-10T08:48:19.211Z,64.37
2018-05-10T08:49:19.237Z,64.08
2018-05-10T08:51:12.178Z,64.12
2018-05-10T08:52:12.185Z,62.96
2018-05-10T08:54:05.121Z,62.00
2018-05-10T08:55:05.131Z,63.25
2018-05-10T08:56:58.047Z,62.19
2018-05-10T08:57:58.075Z,63.34
2018-05-10T08:59:51.086Z,62.41
2018-05-10T09:00:51.019Z,61.93
2018-05-10T09:02:43.933Z,61.83
2018-05-10T09:03:43.963Z,62.51
2018-05-10T09:05:36.897Z,62.41
2018-05-10T09:06:36.906Z,63.25
2018-05-10T09:08:29.822Z,63.47
2018-05-10T09:09:29.853Z,63.38
2018-05-10T09:11:22.782Z,63.50
2018-05-10T09:12:22.797Z,63.28
2018-05-10T09:14:15.734Z,61.29
2018-05-10T09:15:15.740Z,61.29
2018-05-10T09:17:08.658Z,62.15
2018-05-10T09:18:08.691Z,61.38
2018-05-10T09:20:01.627Z,61.10
2018-05-10T09:21:01.654Z,61.41
2018-05-10T09:22:54.552Z,59.94
2018-05-10T09:23:54.584Z,59.65
2018-05-10T09:25:47.521Z,59.36
2018-05-10T09:26:47.529Z,59.62
2018-05-10T09:28:40.450Z,61.45
2018-05-10T09:29:40.478Z,61.35
2018-05-10T09:31:33.440Z,62.25
2018-05-10T09:32:33.424Z,61.77
2018-05-10T09:34:26.382Z,59.55
2018-05-10T09:35:26.391Z,60.23
2018-05-10T09:37:19.316Z,58.97
2018-05-10T09:38:19.343Z,60.03
2018-05-10T09:40:12.289Z,59.75
2018-05-10T09:41:12.289Z,59.94
2018-05-10T09:43:05.234Z,58.81
2018-05-10T09:44:05.236Z,59.30
2018-05-10T09:45:58.172Z,57.78
2018-05-10T09:46:58.183Z,58.45
2018-05-10T09:48:51.099Z,58.45
2018-05-10T09:49:51.128Z,57.97
2018-05-10T09:51:44.065Z,56.72
2018-05-10T09:52:44.150Z,57.78
2018-05-10T09:54:37.011Z,57.87
2018-05-10T09:55:37.026Z,58.58
2018-05-10T09:57:29.941Z,56.62
2018-05-10T09:58:29.969Z,56.81
2018-05-10T10:00:22.907Z,57.94
2018-05-10T10:01:22.917Z,58.23
2018-05-10T10:03:15.835Z,57.82
2018-05-10T10:04:15.865Z,58.49
2018-05-10T10:06:08.842Z,58.69
2018-05-10T10:07:08.812Z,58.40
2018-05-10T10:09:01.731Z,58.01
2018-05-10T10:10:01.758Z,58.40
2018-05-10T10:11:54.694Z,58.11
2018-05-10T10:12:54.704Z,58.30
2018-05-10T10:14:47.640Z,58.20
2018-05-10T10:15:47.757Z,59.17
2018-05-10T10:17:40.638Z,59.65
2018-05-10T10:18:40.622Z,60.23
2018-05-10T10:20:33.561Z,60.30
2018-05-10T10:21:33.579Z,60.23
2018-05-10T10:23:26.500Z,60.32
2018-05-10T10:24:26.525Z,60.32
2018-05-10T10:26:19.478Z,61.35
2018-05-10T10:27:19.555Z,62.12
2018-05-10T10:29:12.400Z,64.15
2018-05-10T10:30:12.471Z,64.98
2018-05-10T10:32:05.360Z,66.62
2018-05-10T10:33:05.373Z,66.78
2018-05-10T10:34:58.302Z,66.97
2018-05-10T10:35:58.317Z,67.26
2018-05-10T10:37:51.243Z,67.71
2018-05-10T10:38:51.331Z,69.06
2018-05-10T10:40:44.199Z,69.02
2018-05-10T10:41:44.212Z,69.02
2018-05-10T10:43:37.119Z,68.06
2018-05-10T10:44:37.146Z,68.54
2018-05-10T10:46:30.083Z,70.17
2018-05-10T10:47:30.095Z,70.37
2018-05-10T10:49:23.034Z,70.27
2018-05-10T10:50:23.036Z,70.27
2018-05-10T10:52:15.957Z,71.19
2018-05-10T10:53:15.965Z,70.46
2018-05-10T10:55:08.897Z,72.48
2018-05-10T10:56:08.919Z,72.96
2018-05-10T10:58:01.816Z,75.07
2018-05-10T10:59:01.843Z,75.65
2018-05-10T11:00:54.790Z,76.52
2018-05-10T11:01:54.891Z,76.52
2018-05-10T11:03:48.255Z,75.56
2018-05-10T11:04:48.326Z,75.42
2018-05-10T11:06:41.245Z,75.13
2018-05-10T11:07:41.282Z,75.71
2018-05-10T11:09:34.220Z,77.44
2018-05-10T11:10:34.337Z,77.15
2018-05-10T11:12:27.251Z,77.44
2018-05-10T11:13:27.223Z,76.96
2018-05-10T11:15:20.264Z,77.06
2018-05-10T11:16:20.159Z,77.21
2018-05-10T11:18:13.081Z,77.01
2018-05-10T11:19:13.134Z,77.40
2018-05-10T11:21:06.080Z,77.84
2018-05-10T11:22:06.070Z,78.52
2018-05-10T11:23:59.039Z,79.42
2018-05-10T11:24:59.032Z,80.43
2018-05-10T11:26:52.987Z,80.19
2018-05-10T11:27:53.004Z,80.19
2018-05-10T11:29:45.928Z,80.09
2018-05-10T11:30:46.078Z,79.80
2018-05-10T11:32:38.890Z,80.28
2018-05-10T11:33:38.947Z,80.38
2018-05-10T11:35:31.919Z,80.76
2018-05-10T11:36:31.864Z,80.28
2018-05-10T11:38:24.752Z,80.47
2018-05-10T11:39:24.795Z,79.32
2018-05-10T11:41:17.736Z,79.90
2018-05-10T11:42:17.740Z,80.19
2018-05-10T11:44:10.662Z,80.28
2018-05-10T11:45:10.692Z,80.09
2018-05-10T11:47:03.679Z,79.22
2018-05-10T11:48:03.635Z,80.47
2018-05-10T11:49:56.621Z,79.57
2018-05-10T11:50:56.589Z,79.09
2018-05-10T11:52:49.561Z,80.82
2018-05-10T11:53:49.588Z,80.30
2018-05-10T11:55:42.521Z,80.78
2018-05-10T11:56:42.511Z,81.74
2018-05-10T11:58:49.965Z,81.26
2018-05-10T11:59:35.485Z,81.35
2018-05-10T12:01:28.426Z,81.45
2018-05-10T12:02:28.574Z,81.45
2018-05-10T12:04:21.839Z,83.08
2018-05-10T12:05:21.868Z,82.79
2018-05-10T12:07:14.815Z,83.18
2018-05-10T12:08:14.821Z,82.41
2018-05-10T12:10:07.865Z,83.18
2018-05-10T12:11:07.775Z,83.47
2018-05-10T12:13:00.749Z,82.41
2018-05-10T12:14:00.860Z,81.74
2018-05-10T12:15:53.701Z,82.18
2018-05-10T12:16:53.672Z,83.18
2018-05-10T12:18:47.578Z,81.51
2018-05-10T12:19:47.609Z,81.79
2018-05-10T12:21:40.570Z,82.46
2018-05-10T12:22:40.592Z,82.98
2018-05-10T12:24:33.564Z,81.54
2018-05-10T12:25:33.609Z,81.93
2018-05-10T12:27:26.517Z,81.64
2018-05-10T12:28:26.520Z,81.93
2018-05-10T12:30:19.458Z,80.30
2018-05-10T12:31:19.459Z,80.01
2018-05-10T12:33:12.389Z,81.74
2018-05-10T12:34:12.399Z,81.07
2018-05-10T12:36:05.331Z,80.24
2018-05-10T12:37:05.400Z,80.01
2018-05-10T12:38:58.249Z,78.61
2018-05-10T12:39:58.284Z,76.69
2018-05-10T12:41:51.206Z,78.70
2018-05-10T12:42:51.218Z,76.88
2018-05-10T12:44:44.132Z,77.17
2018-05-10T12:45:44.262Z,76.69
2018-05-10T12:47:38.078Z,75.87
2018-05-10T12:48:38.114Z,75.63
2018-05-10T12:50:31.022Z,76.34
2018-05-10T12:51:31.026Z,76.34
2018-05-10T12:53:23.957Z,77.40
2018-05-10T12:54:23.972Z,76.92
2018-05-10T12:56:17.026Z,75.10
2018-05-10T12:57:16.908Z,75.38
2018-05-10T12:59:09.822Z,74.27
2018-05-10T13:00:09.843Z,73.85
2018-05-10T13:02:02.776Z,73.27
2018-05-10T13:03:02.786Z,73.08
2018-05-10T13:04:55.714Z,73.75
2018-05-10T13:05:55.726Z,75.38
2018-05-10T13:07:48.665Z,73.33
2018-05-10T13:08:48.670Z,71.89
2018-05-10T13:10:41.588Z,71.31
2018-05-10T13:11:41.624Z,71.28
2018-05-10T13:13:34.557Z,71.66
2018-05-10T13:14:34.577Z,71.57
2018-05-10T13:16:27.497Z,72.33
2018-05-10T13:17:27.572Z,72.43
2018-05-10T13:19:20.445Z,70.13
2018-05-10T13:20:20.461Z,70.74
2018-05-10T13:22:13.396Z,70.64
2018-05-10T13:23:13.405Z,70.36
2018-05-10T13:25:06.320Z,69.87
2018-05-10T13:26:06.344Z,69.49
2018-05-10T13:27:59.272Z,67.38
2018-05-10T13:28:59.344Z,66.93
2018-05-10T13:30:52.192Z,65.78
2018-05-10T13:31:52.229Z,65.49
2018-05-10T13:33:45.151Z,64.79
2018-05-10T13:34:45.223Z,66.55
2018-05-10T13:36:38.084Z,65.94
2018-05-10T13:37:38.092Z,65.40
2018-05-10T13:39:31.041Z,63.16
2018-05-10T13:40:31.042Z,63.09
2018-05-10T13:42:23.976Z,62.13
2018-05-10T13:43:23.983Z,61.84
2018-05-10T13:45:17.902Z,60.60
2018-05-10T13:46:17.923Z,61.33
2018-05-10T13:48:10.858Z,61.08
2018-05-10T13:49:10.859Z,60.78
2018-05-10T13:51:03.775Z,61.17
2018-05-10T13:52:03.797Z,61.65
2018-05-10T13:53:56.735Z,60.02
2018-05-10T13:54:56.737Z,59.73
2018-05-10T13:56:49.709Z,60.50
2018-05-10T13:57:49.676Z,59.54
2018-05-10T13:59:42.720Z,59.34
2018-05-10T14:00:42.739Z,59.44
2018-05-10T14:02:35.685Z,57.14
2018-05-10T14:03:35.687Z,58.96
2018-05-10T14:05:28.600Z,60.11
2018-05-10T14:06:28.629Z,59.54
2018-05-10T14:08:21.557Z,59.28
2018-05-10T14:09:21.571Z,58.87
2018-05-10T14:11:14.476Z,55.82
2018-05-10T14:12:14.504Z,55.44
2018-05-10T14:14:07.437Z,55.91
2018-05-10T14:15:07.448Z,56.88
2018-05-10T14:17:00.378Z,57.17
2018-05-10T14:18:00.391Z,56.56
2018-05-10T14:19:53.301Z,57.81
2018-05-10T14:20:53.330Z,57.62
2018-05-10T14:22:46.259Z,58.20
2018-05-10T14:23:46.270Z,58.58
2018-05-10T14:25:39.404Z,59.34
2018-05-10T14:26:39.431Z,60.02
2018-05-10T14:28:32.363Z,60.08
2018-05-10T14:29:32.575Z,59.22
2018-05-10T14:31:25.291Z,61.14
2018-05-10T14:32:25.331Z,61.24
2018-05-10T14:34:18.242Z,61.81
2018-05-10T14:35:18.247Z,62.10
2018-05-10T14:37:11.178Z,63.16
2018-05-10T14:38:11.184Z,63.06
2018-05-10T14:40:04.098Z,63.06
2018-05-10T14:41:04.121Z,62.84
2018-05-10T14:42:57.092Z,63.35
2018-05-10T14:43:57.071Z,64.02
2018-05-10T14:45:49.970Z,64.89
2018-05-10T14:46:49.996Z,65.27
2018-05-10T14:48:42.929Z,64.98
2018-05-10T14:49:42.932Z,64.22
2018-05-10T14:51:35.843Z,64.92
2018-05-10T14:52:35.867Z,65.30
2018-05-10T14:54:28.800Z,63.28
2018-05-10T14:55:28.815Z,63.28
2018-05-10T14:57:21.751Z,62.32
2018-05-10T14:58:21.754Z,63.09
2018-05-10T15:00:14.713Z,62.99
2018-05-10T15:01:14.728Z,63.16
2018-05-10T15:03:07.634Z,63.57
2018-05-10T15:04:07.683Z,63.76
2018-05-10T15:06:00.547Z,63.06
2018-05-10T15:07:00.574Z,63.92
2018-05-10T15:08:53.510Z,63.35
2018-05-10T15:09:53.551Z,62.68
2018-05-10T15:11:46.429Z,62.68
2018-05-10T15:12:46.454Z,63.73
2018-05-10T15:14:39.405Z,63.06
2018-05-10T15:15:39.500Z,62.87
2018-05-10T15:17:32.424Z,63.16
2018-05-10T15:18:32.347Z,63.64
2018-05-10T15:20:25.260Z,64.47
2018-05-10T15:21:25.292Z,65.62
2018-05-10T15:23:18.219Z,65.14
2018-05-10T15:24:18.226Z,65.43
2018-05-10T15:26:12.138Z,65.23
2018-05-10T15:27:12.166Z,65.33
2018-05-10T15:29:05.093Z,66.00
2018-05-10T15:30:05.099Z,66.00
2018-05-10T15:31:58.009Z,65.62
2018-05-10T15:32:58.041Z,66.58
2018-05-10T15:34:50.965Z,66.67
2018-05-10T15:35:50.971Z,66.67
2018-05-10T15:37:44.100Z,66.39
2018-05-10T15:38:44.106Z,66.39
2018-05-10T15:40:37.063Z,66.96
2018-05-10T15:41:37.059Z,67.16
2018-05-10T15:43:30.000Z,67.06
2018-05-10T15:44:30.002Z,67.63
2018-05-10T15:46:22.905Z,67.06
2018-05-10T15:47:22.937Z,68.21
2018-05-10T15:49:15.888Z,68.50
2018-05-10T15:50:15.894Z,67.73
2018-05-10T15:52:08.802Z,68.59
2018-05-10T15:53:08.829Z,69.46
2018-05-10T15:55:01.756Z,68.30
2018-05-10T15:56:01.762Z,69.46
2018-05-10T15:57:54.738Z,69.07
2018-05-10T15:58:54.696Z,68.98
2018-05-10T16:00:47.613Z,68.30
2018-05-10T16:01:47.631Z,68.50
2018-05-10T16:03:40.586Z,68.85
2018-05-10T16:04:40.580Z,68.59
2018-05-10T16:06:33.590Z,68.30
2018-05-10T16:07:33.568Z,69.07
2018-05-10T16:09:26.546Z,68.98
2018-05-10T16:10:26.538Z,68.40
2018-05-10T16:12:19.508Z,68.30
2018-05-10T16:13:19.491Z,68.88
2018-05-10T16:15:12.419Z,69.65
2018-05-10T16:16:12.425Z,69.81
2018-05-10T16:18:05.359Z,69.52
2018-05-10T16:19:05.367Z,70.09
2018-05-10T16:20:58.277Z,69.65
2018-05-10T16:21:58.305Z,69.93
2018-05-10T16:23:51.267Z,69.46
2018-05-10T16:24:51.329Z,69.84
2018-05-10T16:26:44.169Z,70.38
2018-05-10T16:27:44.267Z,70.38
2018-05-10T16:29:37.121Z,69.90
2018-05-10T16:30:37.126Z,70.76
2018-05-10T16:32:30.035Z,70.29
2018-05-10T16:33:30.073Z,70.38
2018-05-10T16:35:22.991Z,71.25
2018-05-10T16:36:22.992Z,70.76
2018-05-10T16:38:15.928Z,70.29
2018-05-10T16:39:15.937Z,70.86
2018-05-10T16:41:08.850Z,70.96
2018-05-10T16:42:08.934Z,70.67
2018-05-10T16:44:01.827Z,70.19
2018-05-10T16:45:01.840Z,70.48
2018-05-10T16:46:54.722Z,70.19
2018-05-10T16:47:54.745Z,70.86
2018-05-10T16:49:47.672Z,71.25
2018-05-10T16:50:47.682Z,71.47
2018-05-10T16:52:40.714Z,70.51
2018-05-10T16:53:40.741Z,70.90
2018-05-10T16:55:33.669Z,70.61
2018-05-10T16:56:33.676Z,70.42
2018-05-10T16:58:26.627Z,70.70
2018-05-10T16:59:26.629Z,70.80
2018-05-10T17:01:19.545Z,71.19
2018-05-10T17:02:19.567Z,71.09
2018-05-10T17:04:12.497Z,70.80
2018-05-10T17:05:12.508Z,70.13
2018-05-10T17:07:05.416Z,70.42
2018-05-10T17:08:05.446Z,70.32
2018-05-10T17:09:58.376Z,70.51
2018-05-10T17:10:58.378Z,71.09
2018-05-10T17:12:51.289Z,71.37
2018-05-10T17:13:51.317Z,71.57
2018-05-10T17:15:44.241Z,72.24
2018-05-10T17:16:44.250Z,72.24
2018-05-10T17:18:37.261Z,71.95
2018-05-10T17:19:37.179Z,72.53
2018-05-10T17:21:30.127Z,72.24
2018-05-10T17:22:30.121Z,72.91
2018-05-10T17:24:23.045Z,72.08
2018-05-10T17:25:23.051Z,72.28
2018-05-10T17:27:15.965Z,72.08
2018-05-10T17:28:15.987Z,72.18
2018-05-10T17:30:08.918Z,71.61
2018-05-10T17:31:08.921Z,71.41
2018-05-10T17:33:01.833Z,71.51
2018-05-10T17:34:01.857Z,71.83
2018-05-10T17:35:54.787Z,71.73
2018-05-10T17:36:54.796Z,71.45
2018-05-10T17:38:47.722Z,71.64
2018-05-10T17:39:47.733Z,71.25
2018-05-10T17:41:40.716Z,71.16
2018-05-10T17:42:40.663Z,70.49
2018-05-10T17:44:33.594Z,69.91
2018-05-10T17:45:33.601Z,70.20
2018-05-10T17:47:26.511Z,70.68
2018-05-10T17:48:26.537Z,70.49
2018-05-10T17:50:19.476Z,70.58
2018-05-10T17:51:19.477Z,70.39
2018-05-10T17:53:12.383Z,70.39
2018-05-10T17:54:12.408Z,69.34
2018-05-10T17:56:05.343Z,69.14
2018-05-10T17:57:05.352Z,69.24
2018-05-10T17:58:58.278Z,69.91
2018-05-10T17:59:58.288Z,70.39
2018-05-10T18:01:51.195Z,70.49
2018-05-10T18:02:51.219Z,69.72
2018-05-10T18:04:44.150Z,69.30
2018-05-10T18:05:44.155Z,69.78
2018-05-10T18:07:37.064Z,70.84
2018-05-10T18:08:37.089Z,71.12
2018-05-10T18:10:30.033Z,71.03
2018-05-10T18:11:30.054Z,71.03
2018-05-10T18:13:22.943Z,71.61
2018-05-10T18:14:22.974Z,71.61
2018-05-10T18:16:15.899Z,71.31
2018-05-10T18:17:15.905Z,71.31
2018-05-10T18:19:08.833Z,71.31
2018-05-10T18:20:08.841Z,71.12
2018-05-10T18:22:01.750Z,71.61
2018-05-10T18:23:01.777Z,70.93
2018-05-10T18:24:54.709Z,71.12
2018-05-10T18:25:54.719Z,71.12
2018-05-10T18:27:47.623Z,71.51
2018-05-10T18:28:47.648Z,71.51
2018-05-10T18:30:40.577Z,71.03
2018-05-10T18:31:40.581Z,71.57
2018-05-10T18:33:33.489Z,71.80